Time;durP1;ratioP1;P1;durP2;ratioP2;P2;SDS_P1;SDS_P2;PMS_P1;PMS_P2;Temp;Humidity;BMP_temperature;BMP_pressure;BME280_temperature;BME280_humidity;BME280_pressure;Samples;Min_cycle;Max_cycle;Signal;HPM_P1;HPM_P2
2024/04/20 00:00:58;;;;;;;17.00;6.90;;;;;;;31.11;84.84;100725.53;5382973;26;64925;-32
2024/04/20 00:03:29;;;;;;;14.23;6.40;;;;;;;31.13;82.91;100723.44;5407492;26;68506;-31
2024/04/20 00:06:05;;;;;;;18.93;7.53;;;;;;;31.12;85.20;100727.22;5384399;26;65145;-36
2024/04/20 00:08:37;;;;;;;16.52;7.45;;;;;;;31.16;85.58;100739.22;5387170;26;68824;-31
2024/04/20 00:11:09;;;;;;;8.38;7.25;;;;;;;31.15;85.23;100736.78;5391620;26;65023;-32
2024/04/20 00:13:40;;;;;;;8.50;7.53;;;;;;;31.22;84.78;100752.94;5368129;26;69300;-33
2024/04/20 00:16:11;;;;;;;7.18;6.57;;;;;;;31.27;85.41;100755.81;5401883;26;64082;-34
2024/04/20 00:18:42;;;;;;;6.90;6.07;;;;;;;31.27;85.43;100750.38;5384343;26;68646;-31
2024/04/20 00:21:17;;;;;;;14.35;6.70;;;;;;;31.30;85.10;100756.16;5399820;26;65018;-32
2024/04/20 00:23:48;;;;;;;8.05;6.18;;;;;;;31.31;85.53;100749.69;5405602;26;69555;-32
2024/04/20 00:26:19;;;;;;;11.33;8.07;;;;;;;31.32;86.83;100761.38;5400433;26;65040;-31
2024/04/20 00:28:50;;;;;;;7.60;6.82;;;;;;;31.35;86.58;100766.34;5415003;26;68435;-32
2024/04/20 00:31:21;;;;;;;8.30;6.50;;;;;;;31.40;86.17;100766.53;5390139;26;65842;-32
2024/04/20 00:33:52;;;;;;;6.63;6.03;;;;;;;31.42;86.81;100775.25;5384751;26;67416;-34
2024/04/20 00:36:24;;;;;;;6.23;5.23;;;;;;;31.46;86.33;100776.47;5404393;26;64649;-33
2024/04/20 00:38:55;;;;;;;6.20;5.60;;;;;;;31.49;87.37;100776.00;5402846;26;68492;-32
2024/04/20 00:41:26;;;;;;;7.28;5.97;;;;;;;31.37;85.59;100750.69;5409598;26;64071;-31
2024/04/20 00:43:57;;;;;;;5.30;4.90;;;;;;;31.52;86.64;100770.13;5384896;26;67786;-32
2024/04/20 00:46:30;;;;;;;5.90;5.28;;;;;;;31.35;86.56;100741.94;5396447;26;64693;-31
2024/04/20 00:49:01;;;;;;;6.38;5.18;;;;;;;31.61;86.77;100779.59;5387570;26;68888;-32
2024/04/20 00:51:32;;;;;;;5.10;4.70;;;;;;;31.61;86.47;100785.00;5361309;26;64874;-32
2024/04/20 00:54:05;;;;;;;5.80;5.27;;;;;;;31.65;86.04;100779.13;5381474;26;67467;-32
2024/04/20 00:56:37;;;;;;;8.00;5.78;;;;;;;31.70;85.88;100779.28;5386153;26;64743;-33
2024/04/20 00:59:10;;;;;;;6.28;4.60;;;;;;;31.73;87.66;100773.41;5386001;26;68211;-31
2024/04/20 01:01:42;;;;;;;4.93;4.50;;;;;;;31.80;85.38;100783.09;5383569;26;65305;-32
2024/04/20 01:04:13;;;;;;;6.13;5.00;;;;;;;31.82;86.01;100780.19;5384644;26;67900;-33
2024/04/20 01:06:44;;;;;;;5.80;4.40;;;;;;;31.88;85.26;100789.28;5381879;26;63854;-32
2024/04/20 01:09:15;;;;;;;6.35;4.15;;;;;;;31.88;85.77;100781.97;5395718;26;67408;-32
2024/04/20 01:11:47;;;;;;;5.63;4.03;;;;;;;31.92;85.52;100796.75;5389612;26;65038;-32
2024/04/20 01:14:18;;;;;;;6.47;4.80;;;;;;;31.96;86.33;100792.53;5402866;26;68419;-32
2024/04/20 01:16:49;;;;;;;6.18;5.68;;;;;;;32.00;86.10;100788.28;5392679;26;65582;-32
2024/04/20 01:19:25;;;;;;;7.10;6.50;;;;;;;31.80;86.65;100755.16;5388279;26;68626;-32
2024/04/20 01:21:56;;;;;;;10.18;6.13;;;;;;;32.07;85.58;100787.38;5389640;26;64099;-32
2024/04/20 01:24:28;;;;;;;6.78;6.00;;;;;;;32.07;85.58;100788.22;5408519;26;69040;-31
2024/04/20 01:27:00;;;;;;;8.55;6.93;;;;;;;32.15;84.82;100800.59;5389280;26;64334;-32
2024/04/20 01:29:31;;;;;;;6.50;6.00;;;;;;;32.16;85.17;100796.84;5382058;26;68623;-33
2024/04/20 01:32:02;;;;;;;6.25;5.65;;;;;;;32.15;85.95;100787.03;5379997;26;64759;-32
2024/04/20 01:34:34;;;;;;;10.15;5.68;;;;;;;32.15;85.71;100787.03;5395961;26;68691;-32
2024/04/20 01:37:05;;;;;;;;;;;;;;;32.12;88.48;100798.34;5392997;26;65129;-32
2024/04/20 01:39:36;;;;;;;5.78;5.25;;;;;;;32.23;86.00;100793.00;5397531;26;68288;-33
2024/04/20 01:42:08;;;;;;;6.28;5.35;;;;;;;32.27;84.83;100796.06;5386073;26;63658;-32
2024/04/20 01:44:39;;;;;;;5.47;5.03;;;;;;;32.28;85.98;100801.25;5385418;26;68394;-32
2024/04/20 01:47:10;;;;;;;6.88;5.63;;;;;;;32.31;85.45;100802.66;5401742;26;64281;-32
2024/04/20 01:49:42;;;;;;;7.72;6.53;;;;;;;32.33;85.28;100802.44;5394529;26;67735;-32
2024/04/20 01:52:13;;;;;;;5.93;5.40;;;;;;;32.35;86.17;100795.72;5400820;26;64501;-31
2024/04/20 01:54:44;;;;;;;8.68;6.32;;;;;;;32.38;85.66;100794.44;5403516;26;68580;-31
2024/04/20 01:57:16;;;;;;;8.65;6.40;;;;;;;32.45;84.57;100795.97;5397659;26;65180;-31
2024/04/20 01:59:47;;;;;;;7.05;6.15;;;;;;;32.45;84.28;100787.81;5418016;26;68145;-32
2024/04/20 02:02:22;;;;;;;6.22;5.60;;;;;;;32.52;84.15;100789.66;5391349;26;64928;-33
2024/04/20 02:04:53;;;;;;;5.90;5.30;;;;;;;32.55;84.24;100795.44;5399868;26;68664;-32
2024/04/20 02:07:24;;;;;;;6.32;5.85;;;;;;;32.55;85.01;100783.75;5387950;26;64236;-32
2024/04/20 02:09:55;;;;;;;7.78;6.28;;;;;;;32.62;84.78;100785.28;5402899;26;68751;-32
2024/04/20 02:12:27;;;;;;;11.30;6.10;;;;;;;32.65;84.27;100778.56;5387495;26;65680;-32
2024/04/20 02:14:58;;;;;;;7.13;6.00;;;;;;;32.59;84.32;100769.47;5388729;26;68491;-32
2024/04/20 02:17:29;;;;;;;6.15;5.38;;;;;;;32.69;83.67;100774.31;5401866;26;65266;-32
2024/04/20 02:20:01;;;;;;;11.05;5.60;;;;;;;32.76;83.58;100769.59;5407882;26;67878;-33
2024/04/20 02:22:32;;;;;;;6.25;5.38;;;;;;;32.79;84.37;100769.13;5399240;26;65333;-33
2024/04/20 02:25:03;;;;;;;5.73;5.00;;;;;;;32.64;83.84;100744.31;5400998;26;68912;-33
2024/04/20 02:27:35;;;;;;;6.93;5.25;;;;;;;32.74;85.76;100765.47;5396714;26;64579;-31
2024/04/20 02:30:07;;;;;;;6.57;5.00;;;;;;;32.80;85.60;100776.22;5412398;26;68052;-32
2024/04/20 02:32:38;;;;;;;7.30;5.35;;;;;;;32.77;85.36;100776.69;5411040;26;64315;-34
2024/04/20 02:35:09;;;;;;;10.48;4.75;;;;;;;32.77;85.19;100763.09;5414511;26;68706;-32
2024/04/20 02:37:41;;;;;;;7.30;4.25;;;;;;;32.80;86.66;100754.47;5383858;26;64656;-31
2024/04/20 02:40:12;;;;;;;8.57;4.75;;;;;;;32.84;85.23;100765.69;5384487;26;68642;-33
2024/04/20 02:42:44;;;;;;;6.22;4.57;;;;;;;32.87;85.76;100760.59;5382977;26;64963;-32
2024/04/20 02:45:17;;;;;;;7.70;4.90;;;;;;;32.86;85.52;100758.97;5365927;26;68312;-35
2024/04/20 02:47:49;;;;;;;4.68;4.28;;;;;;;32.91;85.58;100750.94;5355327;26;65458;-34
2024/04/20 02:50:20;;;;;;;9.55;4.50;;;;;;;32.92;86.70;100749.03;5404681;26;68648;-32
2024/04/20 02:52:52;;;;;;;4.65;4.25;;;;;;;32.92;85.87;100735.44;5389303;26;65462;-32
2024/04/20 02:55:23;;;;;;;5.70;3.80;;;;;;;32.96;85.19;100742.06;5386725;26;68461;-34
2024/04/20 02:57:55;;;;;;;11.73;4.72;;;;;;;33.01;85.63;100746.81;5409096;26;65063;-33
2024/04/20 03:00:26;;;;;;;6.95;4.20;;;;;;;33.03;85.97;100741.97;5414770;26;67954;-32
2024/04/20 03:02:57;;;;;;;8.63;4.25;;;;;;;33.06;85.36;100752.38;5403818;26;64254;-32
2024/04/20 03:05:29;;;;;;;4.65;3.65;;;;;;;33.09;85.63;100746.44;5385301;26;68625;-34
2024/04/20 03:08:01;;;;;;;11.02;3.75;;;;;;;33.16;85.28;100752.59;5408410;26;63854;-33
2024/04/20 03:10:32;;;;;;;7.00;4.03;;;;;;;33.19;85.19;100754.81;5404208;26;68422;-33
2024/04/20 03:13:03;;;;;;;5.32;4.13;;;;;;;33.20;85.19;100742.88;5374776;26;64657;-35
2024/04/20 03:15:34;;;;;;;9.13;4.57;;;;;;;33.24;85.49;100738.63;5384359;26;70249;-34
2024/04/20 03:18:07;;;;;;;5.00;3.78;;;;;;;33.24;84.46;100744.06;5413438;26;64124;-33
2024/04/20 03:20:44;;;;;;;5.55;4.53;;;;;;;33.27;85.10;100735.44;5375559;26;68712;-33
2024/04/20 03:23:19;;;;;;;5.10;4.60;;;;;;;33.31;83.73;100739.31;5367517;26;65075;-34
2024/04/20 03:25:50;;;;;;;9.60;4.53;;;;;;;33.29;84.39;100730.59;5387237;26;68571;-33
2024/04/20 03:28:21;;;;;;;;;;;;;;;33.27;84.68;100737.34;5402689;26;65341;-33
2024/04/20 03:30:53;;;;;;;4.00;3.30;;;;;;;33.39;82.72;100740.84;5413988;26;68763;-32
2024/04/20 03:33:30;;;;;;;4.43;3.90;;;;;;;33.37;83.95;100732.09;5417675;26;65317;-32
2024/04/20 03:36:01;;;;;;;5.20;4.03;;;;;;;33.41;83.02;100729.72;5394241;26;70717;-32
2024/04/20 03:38:33;;;;;;;4.03;3.63;;;;;;;33.43;83.12;100735.72;5395457;26;65395;-34
2024/04/20 03:41:04;;;;;;;5.32;3.92;;;;;;;33.46;81.97;100736.09;5395627;26;68712;-32
2024/04/20 03:43:35;;;;;;;5.88;3.55;;;;;;;33.43;82.70;100735.72;5385792;26;63970;-33
2024/04/20 03:46:07;;;;;;;4.63;3.33;;;;;;;33.46;82.34;100732.53;5393263;26;69434;-33
2024/04/20 03:48:39;;;;;;;3.95;3.53;;;;;;;33.53;81.86;100730.53;5385934;26;64004;-32
2024/04/20 03:51:11;;;;;;;5.20;3.40;;;;;;;33.52;80.78;100717.97;5388703;26;68679;-33
2024/04/20 03:53:42;;;;;;;3.67;3.38;;;;;;;33.58;81.36;100723.28;5391655;26;65151;-32
2024/04/20 03:56:15;;;;;;;3.15;2.85;;;;;;;33.58;81.37;100733.34;5353145;26;68769;-31
2024/04/20 03:58:49;;;;;;;4.60;3.35;;;;;;;33.59;80.31;100724.13;5395180;26;65461;-33
2024/04/20 04:01:20;;;;;;;3.33;2.88;;;;;;;33.59;80.65;100729.56;5342603;26;68652;-32
2024/04/20 04:03:52;;;;;;;;;;;;;;;33.57;79.99;100731.69;5386900;26;65743;-32
2024/04/20 04:06:23;;;;;;;6.45;2.80;;;;;;;33.67;79.62;100725.63;5389014;26;67736;-35
2024/04/20 04:08:54;;;;;;;3.35;2.78;;;;;;;33.66;79.44;100724.81;5392261;26;64890;-33
2024/04/20 04:11:26;;;;;;;3.38;2.42;;;;;;;33.69;79.14;100715.34;5397611;26;68267;-33
2024/04/20 04:13:57;;;;;;;8.73;3.05;;;;;;;33.68;79.48;100714.50;5387034;26;65337;-33
2024/04/20 04:16:28;;;;;;;6.57;2.67;;;;;;;33.72;78.89;100712.13;5384875;26;68702;-32
2024/04/20 04:19:00;;;;;;;6.82;2.47;;;;;;;33.71;79.51;100711.31;5395616;26;64490;-32
2024/04/20 04:21:33;;;;;;;2.88;2.47;;;;;;;33.74;79.03;100702.66;5397595;26;68658;-32
2024/04/20 04:24:05;;;;;;;4.65;2.33;;;;;;;33.78;78.76;100705.72;5382604;26;65236;-31
2024/04/20 04:26:36;;;;;;;5.78;2.22;;;;;;;33.81;78.48;100700.59;5386067;26;68349;-31
2024/04/20 04:29:07;;;;;;;3.17;2.25;;;;;;;33.81;78.07;100703.31;5385465;26;65192;-32
2024/04/20 04:31:39;;;;;;;5.65;3.13;;;;;;;33.85;78.83;100694.66;5385648;26;69170;-30
2024/04/20 04:34:10;;;;;;;;;;;;;;;33.81;78.74;100697.88;5364965;26;64686;-30
2024/04/20 04:36:41;;;;;;;3.17;2.47;;;;;;;33.89;78.37;100699.38;5385659;26;68951;-31
2024/04/20 04:39:16;;;;;;;5.25;2.65;;;;;;;33.93;77.82;100695.06;5371570;26;65809;-30
2024/04/20 04:41:48;;;;;;;5.22;2.47;;;;;;;33.93;77.96;100691.53;5402572;26;68721;-30
2024/04/20 04:44:19;;;;;;;3.33;2.28;;;;;;;33.96;77.78;100680.16;5390216;26;64935;-30
2024/04/20 04:46:50;;;;;;;3.67;2.20;;;;;;;33.98;77.87;100678.03;5400693;26;68757;-30
2024/04/20 04:49:22;;;;;;;3.53;2.20;;;;;;;33.96;77.06;100675.56;5386051;26;64263;-30
2024/04/20 04:51:54;;;;;;;6.32;2.28;;;;;;;34.01;77.08;100672.09;5387442;26;68762;-33
2024/04/20 04:54:25;;;;;;;4.13;2.28;;;;;;;33.97;77.37;100673.66;5399011;26;64992;-31
2024/04/20 04:56:57;;;;;;;2.10;1.90;;;;;;;34.06;76.73;100664.03;5413098;26;67035;-31
2024/04/20 04:59:28;;;;;;;3.80;2.33;;;;;;;33.99;76.78;100652.44;5397363;26;65473;-31
2024/04/20 05:01:59;;;;;;;;;;;;;;;33.94;75.69;100664.09;5387575;26;68401;-30
2024/04/20 05:04:31;;;;;;;6.20;2.50;;;;;;;34.08;76.47;100653.75;5384003;26;65221;-33
2024/04/20 05:07:04;;;;;;;2.47;2.28;;;;;;;34.13;76.77;100659.28;5359390;26;69397;-32
2024/04/20 05:09:38;;;;;;;4.45;2.38;;;;;;;34.12;75.98;100651.34;5404006;26;64907;-31
2024/04/20 05:12:10;;;;;;;3.15;1.95;;;;;;;34.09;75.86;100635.50;5364888;26;68845;-31
2024/04/20 05:14:42;;;;;;;2.80;2.60;;;;;;;34.17;76.72;100643.25;5328347;26;64414;-32
2024/04/20 05:17:13;;;;;;;5.45;2.47;;;;;;;34.19;76.06;100647.38;5374526;26;68916;-31
2024/04/20 05:19:45;;;;;;;2.63;2.42;;;;;;;34.20;76.53;100632.69;5399686;26;65594;-30
2024/04/20 05:22:16;;;;;;;;;;;;;;;34.15;76.76;100632.59;5378072;26;67983;-32
2024/04/20 05:24:47;;;;;;;4.68;2.33;;;;;;;34.22;76.24;100621.56;5405588;26;65977;-31
2024/04/20 05:27:19;;;;;;;4.50;2.40;;;;;;;34.26;75.46;100612.63;5366865;26;68344;-33
2024/04/20 05:29:50;;;;;;;5.25;2.83;;;;;;;34.25;76.48;100619.16;5369458;26;65534;-33
2024/04/20 05:32:22;;;;;;;2.85;2.22;;;;;;;34.32;75.67;100615.44;5388861;26;68499;-33
2024/04/20 05:34:53;;;;;;;5.18;2.45;;;;;;;34.33;76.28;100606.19;5377151;26;64026;-31
2024/04/20 05:37:25;;;;;;;3.63;2.60;;;;;;;34.36;75.81;100602.97;5398658;26;69253;-34
2024/04/20 05:39:57;;;;;;;2.33;2.13;;;;;;;34.34;76.54;100610.56;5385978;26;64941;-34
2024/04/20 05:42:34;;;;;;;3.90;2.55;;;;;;;34.28;76.23;100596.06;5371670;26;69577;-34
2024/04/20 05:45:06;;;;;;;3.50;2.38;;;;;;;34.40;76.35;100598.66;5380028;26;63365;-35
2024/04/20 05:47:38;;;;;;;2.35;2.05;;;;;;;34.40;76.40;100593.22;5383318;26;68573;-35
2024/04/20 05:50:09;;;;;;;3.45;2.60;;;;;;;34.43;75.46;100582.63;5356991;26;64095;-31
2024/04/20 05:52:42;;;;;;;2.65;2.20;;;;;;;34.47;75.73;100582.97;5414254;26;68791;-31
2024/04/20 05:55:13;;;;;;;2.60;2.30;;;;;;;34.54;75.84;100572.69;5394069;26;64418;-31
2024/04/20 05:57:44;;;;;;;;;;;;;;;34.42;74.88;100569.28;5386642;26;69002;-31
2024/04/20 06:00:16;;;;;;;4.07;1.85;;;;;;;34.59;75.34;100563.81;5384672;26;65331;-34
2024/04/20 06:02:47;;;;;;;2.30;2.10;;;;;;;34.56;75.64;100559.69;5396886;26;68903;-33
2024/04/20 06:05:19;;;;;;;3.58;1.67;;;;;;;34.57;75.12;100550.44;5383512;26;64618;-31
2024/04/20 06:07:50;;;;;;;1.85;1.63;;;;;;;34.64;74.38;100545.63;5386297;26;68370;-32
2024/04/20 06:10:22;;;;;;;2.28;2.05;;;;;;;34.72;74.68;100546.28;5385258;26;63621;-31
2024/04/20 06:12:53;;;;;;;1.88;1.65;;;;;;;34.73;74.63;100542.47;5382993;26;67710;-30
2024/04/20 06:15:25;;;;;;;3.63;1.52;;;;;;;34.76;73.99;100536.50;5394281;26;63937;-34
2024/04/20 06:17:56;;;;;;;2.22;1.73;;;;;;;34.77;74.41;100527.25;5413221;26;68498;-32
2024/04/20 06:20:28;;;;;;;5.43;1.83;;;;;;;34.81;74.28;100528.38;5386185;26;63751;-33
2024/04/20 06:22:59;;;;;;;2.83;1.38;;;;;;;34.83;73.69;100518.88;5387944;26;68834;-31
2024/04/20 06:25:30;;;;;;;;;;;;;;;34.88;73.56;100520.81;5408200;26;65639;-32
2024/04/20 06:28:02;;;;;;;3.03;1.30;;;;;;;34.77;73.54;100480.91;5391091;26;67935;-32
2024/04/20 06:30:33;;;;;;;1.70;1.33;;;;;;;34.97;73.20;100519.28;5409509;26;64198;-33
2024/04/20 06:33:05;;;;;;;2.85;1.50;;;;;;;35.04;73.12;100498.09;5365651;26;68049;-31
2024/04/20 06:35:37;;;;;;;3.40;1.20;;;;;;;35.05;73.66;100497.03;5398796;26;64187;-34
2024/04/20 06:38:08;;;;;;;;;;;;;;;35.05;72.35;100497.03;5382176;26;68732;-32
2024/04/20 06:40:40;;;;;;;2.83;1.20;;;;;;;35.21;73.05;100489.00;5351660;26;64491;-31
2024/04/20 06:43:11;;;;;;;;;;;;;;;35.17;72.00;100498.81;5404706;26;69185;-31
2024/04/20 06:45:43;;;;;;;3.10;1.20;;;;;;;35.26;72.64;100489.88;5409130;26;66274;-33
2024/04/20 06:48:14;;;;;;;2.40;1.15;;;;;;;35.31;72.86;100495.38;5396716;26;67905;-31
2024/04/20 06:50:46;;;;;;;1.85;1.10;;;;;;;35.36;72.46;100480.97;5388810;26;65337;-31
2024/04/20 06:53:18;;;;;;;2.67;1.50;;;;;;;35.36;71.94;100475.50;5389570;26;68798;-32
2024/04/20 06:55:56;;;;;;;10.63;1.30;;;;;;;35.43;71.69;100465.19;5387899;26;65055;-32
2024/04/20 06:58:28;;;;;;;1.75;1.20;;;;;;;35.53;72.30;100459.00;5380123;26;67813;-31
2024/04/20 07:01:00;;;;;;;1.98;1.25;;;;;;;35.61;71.26;100454.97;5402442;26;65038;-31
2024/04/20 07:03:34;;;;;;;1.80;1.38;;;;;;;35.57;71.07;100450.03;5395235;26;68642;-31
2024/04/20 07:06:06;;;;;;;2.65;1.05;;;;;;;35.67;70.47;100454.75;5386838;26;64260;-31
2024/04/20 07:08:43;;;;;;;2.25;1.20;;;;;;;35.72;71.63;100446.59;5395513;26;67850;-31
2024/04/20 07:11:15;;;;;;;2.45;1.35;;;;;;;35.79;70.90;100447.19;5395360;26;65355;-31
2024/04/20 07:13:47;;;;;;;1.80;1.45;;;;;;;35.87;70.47;100443.13;5388056;26;69214;-31
2024/04/20 07:16:19;;;;;;;2.05;1.13;;;;;;;35.95;70.10;100434.44;5399198;26;65392;-31
2024/04/20 07:18:51;;;;;;;1.98;1.30;;;;;;;36.01;70.67;100440.75;5396591;26;69388;-32
2024/04/20 07:21:22;;;;;;;1.95;1.17;;;;;;;36.07;69.52;100436.16;5377442;26;64391;-32
2024/04/20 07:23:58;;;;;;;1.17;0.80;;;;;;;36.06;69.42;100424.44;5386944;26;68773;-32
2024/04/20 07:26:30;;;;;;;2.03;1.20;;;;;;;36.18;70.30;100433.19;5399071;26;65630;-33
2024/04/20 07:29:02;;;;;;;1.55;1.05;;;;;;;36.20;69.72;100430.22;5383002;26;68782;-31
2024/04/20 07:31:34;;;;;;;1.60;1.20;;;;;;;36.25;69.46;100416.56;5367986;26;65453;-31
2024/04/20 07:34:05;;;;;;;;;;;;;;;36.30;67.55;100413.03;5391389;26;69332;-33
2024/04/20 07:36:37;;;;;;;2.10;1.10;;;;;;;36.43;69.45;100416.06;5390981;26;65594;-35
2024/04/20 07:39:09;;;;;;;3.17;1.40;;;;;;;36.48;68.63;100409.81;5387754;26;68632;-34
2024/04/20 07:41:41;;;;;;;1.42;1.20;;;;;;;36.55;68.25;100409.56;5405138;26;64667;-31
2024/04/20 07:44:14;;;;;;;3.90;1.20;;;;;;;36.55;68.27;100404.09;5407641;26;68866;-32
2024/04/20 07:47:02;;;;;;;3.88;1.25;;;;;;;36.47;67.57;100378.94;5397549;26;64145;-32
2024/04/20 07:49:40;;;;;;;3.55;1.30;;;;;;;36.67;67.35;100401.94;5387794;26;69706;-32
2024/04/20 07:52:12;;;;;;;2.90;1.38;;;;;;;36.74;68.21;100397.03;5395765;26;65148;-32
2024/04/20 07:54:44;;;;;;;1.67;1.30;;;;;;;36.68;67.46;100376.25;5380774;26;68644;-33
2024/04/20 07:57:16;;;;;;;1.20;1.00;;;;;;;36.74;66.17;100390.75;5384352;26;65705;-34
2024/04/20 07:59:48;;;;;;;2.72;1.40;;;;;;;36.81;67.70;100386.66;5386982;26;68832;-33
2024/04/20 08:02:19;;;;;;;2.13;1.30;;;;;;;36.85;67.12;100387.72;5383501;26;65037;-31
2024/04/20 08:04:51;;;;;;;1.60;1.40;;;;;;;36.84;66.91;100380.63;5379787;26;68825;-31
2024/04/20 08:07:45;;;;;;;3.15;1.20;;;;;;;36.91;67.86;100370.22;5398101;26;65672;-36
2024/04/20 08:10:17;;;;;;;1.50;1.15;;;;;;;36.91;67.69;100372.97;5377872;26;67540;-32
2024/04/20 08:12:49;;;;;;;1.73;1.40;;;;;;;36.94;66.77;100363.41;5409761;26;65079;-31
2024/04/20 08:15:22;;;;;;;7.45;1.65;;;;;;;37.00;67.20;100361.47;5383559;26;68027;-32
2024/04/20 08:17:54;;;;;;;2.15;1.60;;;;;;;37.02;67.08;100353.88;5379057;26;65387;-33
2024/04/20 08:20:26;;;;;;;4.47;1.90;;;;;;;37.01;67.05;100352.19;5384675;26;69043;-36
2024/04/20 08:22:57;;;;;;;7.38;1.77;;;;;;;37.02;67.24;100349.22;5374828;26;65339;-32
2024/04/20 08:25:30;;;;;;;5.75;1.52;;;;;;;37.02;67.21;100348.41;5378100;26;68669;-34
2024/04/20 08:28:01;;;;;;;2.15;1.67;;;;;;;37.00;67.41;100340.44;5375046;26;64932;-35
2024/04/20 08:30:34;;;;;;;2.78;1.73;;;;;;;37.08;67.13;100344.56;5383548;26;68762;-33
2024/04/20 08:33:05;;;;;;;7.85;1.60;;;;;;;37.10;67.44;100351.38;5364820;26;65070;-35
2024/04/20 08:35:37;;;;;;;2.28;1.70;;;;;;;37.03;65.46;100344.59;5364962;26;67639;-33
2024/04/20 08:38:10;;;;;;;5.22;1.85;;;;;;;37.06;65.81;100328.44;5393280;26;64985;-32
2024/04/20 08:40:42;;;;;;;1.50;1.40;;;;;;;37.06;65.83;100339.38;5389636;26;68972;-31
2024/04/20 08:43:15;;;;;;;2.55;1.70;;;;;;;37.13;65.76;100339.09;5425594;26;64829;-32
2024/04/20 08:45:53;;;;;;;3.80;1.60;;;;;;;36.94;64.16;100313.38;5394296;26;68603;-32
2024/04/20 08:48:28;;;;;;;18.40;2.97;;;;;;;37.15;65.72;100322.41;5386498;26;65209;-32
2024/04/20 08:51:04;;;;;;;16.20;2.13;;;;;;;37.21;64.99;100333.06;5376918;26;67665;-32
2024/04/20 08:53:37;;;;;;;19.88;3.03;;;;;;;37.25;65.20;100325.09;5409658;26;65050;-31
2024/04/20 08:56:09;;;;;;;9.98;2.20;;;;;;;37.22;65.50;100340.19;5385105;26;69411;-32
2024/04/20 08:58:41;;;;;;;8.18;1.95;;;;;;;37.26;65.51;100333.03;5404922;26;64907;-32
2024/04/20 09:01:12;;;;;;;;;;;;;;;37.19;63.62;100335.22;5390396;26;68912;-32
2024/04/20 09:03:44;;;;;;;22.95;2.30;;;;;;;37.27;64.91;100334.66;5386251;26;64265;-32
2024/04/20 09:06:19;;;;;;;14.05;2.03;;;;;;;37.20;64.35;100312.28;5384398;26;68027;-32
2024/04/20 09:08:52;;;;;;;31.27;2.03;;;;;;;37.25;64.00;100330.56;5385578;26;64178;-31
2024/04/20 09:11:24;;;;;;;16.70;1.98;;;;;;;37.27;64.35;100334.66;5390684;26;68716;-33
2024/04/20 09:13:58;;;;;;;13.25;1.85;;;;;;;37.24;63.73;100324.28;5370222;26;64185;-34
2024/04/20 09:16:30;;;;;;;6.22;1.52;;;;;;;37.24;63.79;100324.28;5362521;26;69104;-31
2024/04/20 09:19:04;;;;;;;;;;;;;;;37.24;63.30;100318.00;5400939;26;64869;-32
2024/04/20 09:21:35;;;;;;;5.63;1.80;;;;;;;37.24;63.59;100320.75;5403661;26;67519;-31
2024/04/20 09:24:07;;;;;;;6.13;2.38;;;;;;;37.17;63.69;100312.84;5379930;26;64994;-32
2024/04/20 09:26:39;;;;;;;6.47;2.33;;;;;;;37.25;63.80;100319.63;5386945;26;68243;-31
2024/04/20 09:29:11;;;;;;;2.58;1.92;;;;;;;37.21;63.81;100319.38;5396640;26;65125;-32
2024/04/20 09:31:48;;;;;;;;;;;;;;;37.22;62.45;100321.03;5372184;26;67842;-33
2024/04/20 09:34:26;;;;;;;2.65;1.58;;;;;;;37.10;63.35;100315.03;5376207;26;64938;-32
2024/04/20 09:36:58;;;;;;;12.63;1.73;;;;;;;37.13;63.02;100320.75;5383025;26;68665;-32
2024/04/20 09:39:29;;;;;;;11.95;2.15;;;;;;;37.11;62.64;100319.38;5385260;26;65143;-32
2024/04/20 09:42:02;;;;;;;3.33;1.90;;;;;;;37.06;62.72;100316.69;5396380;26;69412;-31
2024/04/20 09:44:37;;;;;;;18.17;2.40;;;;;;;37.01;62.01;100320.25;5404088;26;65012;-32
2024/04/20 09:47:11;;;;;;;6.60;2.42;;;;;;;37.00;60.94;100317.75;5367290;26;67823;-32
2024/04/20 09:49:47;;;;;;;7.07;1.75;;;;;;;37.02;60.91;100318.31;5386674;26;66006;-31
2024/04/20 09:52:21;;;;;;;5.07;1.58;;;;;;;36.99;60.33;100316.09;5384783;26;68995;-31
2024/04/20 09:55:16;;;;;;;9.10;1.67;;;;;;;36.70;59.53;100286.63;5380346;26;65601;-31
2024/04/20 09:57:51;;;;;;;4.35;0.95;;;;;;;36.91;60.80;100326.50;5381311;26;67980;-31
2024/04/20 10:00:24;;;;;;;11.32;1.08;;;;;;;36.88;60.94;100326.22;5397789;26;64927;-31
2024/04/20 10:02:56;;;;;;;2.85;1.60;;;;;;;36.85;60.12;100330.34;5387260;26;68807;-31
2024/04/20 10:05:30;;;;;;;2.72;1.48;;;;;;;36.79;60.14;100320.50;5374073;26;64981;-31
2024/04/20 10:08:05;;;;;;;3.40;1.50;;;;;;;36.81;60.98;100336.63;5398484;26;67842;-30
2024/04/20 10:10:37;;;;;;;22.95;2.00;;;;;;;36.79;61.55;100338.81;5390887;26;65025;-32
2024/04/20 10:13:10;;;;;;;17.30;2.22;;;;;;;36.77;60.98;100328.16;5386756;26;68615;-31
2024/04/20 10:15:47;;;;;;;9.10;1.73;;;;;;;36.68;61.65;100316.94;5368312;26;65148;-30
2024/04/20 10:18:29;;;;;;;3.47;1.45;;;;;;;36.66;62.02;100329.25;5400530;26;67977;-31
2024/04/20 10:21:02;;;;;;;5.10;1.23;;;;;;;36.64;62.64;100326.00;5378715;26;65012;-31
2024/04/20 10:23:34;;;;;;;1.73;1.10;;;;;;;36.62;63.30;100330.91;5391275;26;68474;-31
2024/04/20 10:26:05;;;;;;;3.05;1.35;;;;;;;36.62;63.32;100333.63;5395518;26;66002;-32
2024/04/20 10:28:38;;;;;;;2.08;1.15;;;;;;;36.57;63.15;100337.16;5410056;26;67735;-31
2024/04/20 10:31:10;;;;;;;3.20;1.25;;;;;;;36.57;63.45;100333.63;5401562;26;65858;-31
2024/04/20 10:33:43;;;;;;;4.18;1.00;;;;;;;36.55;63.58;100338.53;5390981;26;68004;-31
2024/04/20 10:36:18;;;;;;;2.47;1.27;;;;;;;36.52;63.61;100339.03;5395717;26;65221;-32
2024/04/20 10:38:50;;;;;;;6.40;1.60;;;;;;;36.49;63.89;100334.13;5385278;26;69212;-32
2024/04/20 10:41:22;;;;;;;2.80;1.60;;;;;;;36.50;64.12;100354.88;5378802;26;64131;-31
2024/04/20 10:43:53;;;;;;;4.32;1.60;;;;;;;36.49;64.65;100356.81;5387964;26;68025;-32
2024/04/20 10:46:24;;;;;;;5.07;2.05;;;;;;;36.44;65.33;100354.91;5408785;26;64628;-31
2024/04/20 10:48:56;;;;;;;4.22;2.10;;;;;;;36.43;65.31;100364.16;5387610;26;67723;-32
2024/04/20 10:51:28;;;;;;;10.35;2.75;;;;;;;36.41;65.06;100360.91;5421895;26;65059;-31
2024/04/20 10:54:01;;;;;;;3.50;2.75;;;;;;;36.39;65.65;100363.09;5387845;26;68712;-32
2024/04/20 10:56:38;;;;;;;6.22;3.05;;;;;;;36.18;65.25;100334.91;5394104;26;64157;-34
2024/04/20 10:59:10;;;;;;;7.57;3.40;;;;;;;36.32;66.03;100367.16;5378325;26;68822;-31
2024/04/20 11:01:43;;;;;;;8.40;3.85;;;;;;;36.18;65.60;100345.00;5399588;26;64773;-32
2024/04/20 11:04:19;;;;;;;4.80;3.30;;;;;;;36.31;65.91;100374.53;5403022;26;67666;-31
2024/04/20 11:06:54;;;;;;;4.57;3.53;;;;;;;36.23;66.05;100369.59;5380391;26;65145;-32
2024/04/20 11:09:27;;;;;;;5.20;3.35;;;;;;;36.28;66.41;100380.53;5387112;26;68646;-32
2024/04/20 11:12:01;;;;;;;;;;;;;;;36.32;66.34;100391.75;5374067;26;62748;-31
2024/04/20 11:14:33;;;;;;;4.70;3.03;;;;;;;36.32;66.20;100384.34;5366026;26;68045;-31
2024/04/20 11:17:04;;;;;;;;;;;;;;;36.32;65.86;100384.34;5390777;26;64725;-31
2024/04/20 11:19:41;;;;;;;3.42;2.83;;;;;;;36.25;65.33;100383.81;5383428;26;67875;-31
2024/04/20 11:22:14;;;;;;;8.48;3.10;;;;;;;36.21;65.46;100390.88;5389524;26;65044;-31
2024/04/20 11:24:46;;;;;;;4.45;1.80;;;;;;;36.18;65.67;100394.16;5384963;26;67918;-33
2024/04/20 11:27:18;;;;;;;9.90;1.95;;;;;;;36.15;65.21;100389.22;5384485;26;66013;-31
2024/04/20 11:29:48;;;;;;;;;;;;;;;36.15;65.63;100395.50;5369918;26;68515;-31
2024/04/20 11:32:23;;;;;;;1.92;1.60;;;;;;;36.11;65.78;100401.75;5384206;26;65270;-31
2024/04/20 11:34:55;;;;;;;2.20;1.58;;;;;;;36.10;65.26;100402.84;5404416;26;68815;-31
2024/04/20 11:37:32;;;;;;;2.85;1.58;;;;;;;36.06;66.12;100402.59;5361809;26;64314;-30
2024/04/20 11:40:05;;;;;;;5.18;2.20;;;;;;;36.02;65.32;100407.72;5397566;26;69405;-32
2024/04/20 11:42:37;;;;;;;7.70;1.70;;;;;;;35.96;66.04;100391.59;5395975;26;65369;-30
2024/04/20 11:45:16;;;;;;;1.98;1.70;;;;;;;35.76;66.75;100373.22;5396113;26;68723;-30
2024/04/20 11:47:47;;;;;;;4.35;2.05;;;;;;;35.96;67.27;100408.78;5386547;26;64910;-31
2024/04/20 11:50:19;;;;;;;;;;;;;;;35.98;67.74;100419.44;5387789;26;67846;-31
2024/04/20 11:55:44;;;;;;;7.50;2.33;;;;;;;35.69;68.12;100370.75;5385810;26;68050;-32